Time;durP1;ratioP1;P1;durP2;ratioP2;P2;SDS_P1;SDS_P2;PMS_P1;PMS_P2;Temp;Humidity;BMP_temperature;BMP_pressure;BME280_temperature;BME280_humidity;BME280_pressure;Samples;Min_cycle;Max_cycle;Signal;HPM_P1;HPM_P2
2022/06/12 00:03:43;;;;;;;7.70;5.75;;;;;;;12.65;80.24;99596.42;4179953;83;21093;-85
2022/06/12 00:09:57;;;;;;;11.18;6.22;;;;;;;12.67;80.51;99594.68;4183461;83;21039;-86
2022/06/12 00:23:16;;;;;;;10.50;6.83;;;;;;;12.40;80.73;99599.44;4194346;85;21000;-86
2022/06/12 00:29:42;;;;;;;20.30;7.33;;;;;;;12.23;80.69;99595.10;4176448;83;21074;-85
2022/06/12 00:35:43;;;;;;;12.70;6.70;;;;;;;12.16;82.11;99597.16;4169182;84;21052;-86
2022/06/12 00:42:21;;;;;;;8.73;7.00;;;;;;;12.29;82.96;99588.13;4172269;83;21645;-85
2022/06/12 00:48:41;;;;;;;11.30;7.28;;;;;;;12.18;82.27;99585.81;4173558;83;21045;-85
2022/06/12 00:54:47;;;;;;;9.43;6.47;;;;;;;12.05;82.58;99575.64;4146208;84;21016;-85
2022/06/12 01:00:51;;;;;;;14.68;6.92;;;;;;;11.99;82.74;99570.83;4133107;84;21030;-85
2022/06/12 01:07:21;;;;;;;11.70;7.10;;;;;;;11.83;83.20;99570.99;4150043;86;21080;-85
2022/06/12 01:13:55;;;;;;;9.08;6.53;;;;;;;11.84;83.35;99562.20;4127330;86;21001;-85
2022/06/12 01:34:41;;;;;;;15.18;7.62;;;;;;;11.68;84.77;99554.09;3857820;88;21199;-85
2022/06/12 01:40:56;;;;;;;8.05;5.60;;;;;;;11.70;84.38;99554.52;4007948;88;21689;-85
2022/06/12 01:47:21;;;;;;;10.43;6.65;;;;;;;11.77;85.40;99551.10;4001412;86;21211;-85
2022/06/12 02:01:06;;;;;;;11.45;6.83;;;;;;;11.62;84.87;99556.14;4047308;86;21056;-85
2022/06/12 02:07:40;;;;;;;10.88;6.40;;;;;;;11.58;85.52;99558.02;4135651;84;21756;-85
2022/06/12 02:13:49;;;;;;;9.90;6.97;;;;;;;11.54;85.92;99554.44;4139407;86;21032;-85
2022/06/12 02:19:51;;;;;;;10.78;6.72;;;;;;;11.50;85.47;99563.97;4130829;84;21017;-87
2022/06/12 02:25:58;;;;;;;8.85;6.08;;;;;;;11.35;86.12;99563.53;4144579;84;21530;-87
2022/06/12 02:32:03;;;;;;;8.93;6.33;;;;;;;11.48;86.59;99562.77;4150486;83;21032;-87
2022/06/12 02:38:22;;;;;;;10.05;6.75;;;;;;;11.37;85.92;99563.94;4133526;83;21630;-88
2022/06/12 02:44:44;;;;;;;14.18;6.70;;;;;;;11.25;86.39;99564.13;4131460;84;21115;-86
2022/06/12 02:51:00;;;;;;;9.20;6.47;;;;;;;11.08;86.39;99564.61;4121703;84;21496;-87
2022/06/12 02:57:34;;;;;;;10.43;6.07;;;;;;;11.11;87.20;99570.73;4145004;84;21495;-86
2022/06/12 03:03:55;;;;;;;7.42;6.12;;;;;;;11.06;86.72;99573.20;4148063;84;21516;-87
2022/06/12 03:10:01;;;;;;;8.85;6.33;;;;;;;10.88;86.85;99566.59;4145483;84;21993;-87
2022/06/12 03:16:17;;;;;;;11.33;6.80;;;;;;;10.84;87.74;99567.68;4154039;85;21158;-87
2022/06/12 03:22:39;;;;;;;14.78;6.20;;;;;;;10.97;88.03;99574.59;4149655;84;21035;-86
2022/06/12 03:29:06;;;;;;;9.40;6.92;;;;;;;11.22;88.66;99569.55;4141585;84;21467;-86
2022/06/12 03:42:41;;;;;;;7.35;5.90;;;;;;;11.39;88.19;99579.45;4128842;84;21091;-87
2022/06/12 03:49:27;;;;;;;8.30;6.05;;;;;;;11.44;88.85;99576.98;4144339;84;21310;-87
2022/06/12 04:02:04;;;;;;;9.23;6.58;;;;;;;11.75;89.01;99589.07;4139815;84;21071;-86
2022/06/12 04:08:35;;;;;;;9.73;6.22;;;;;;;11.85;88.80;99582.97;4146791;84;21610;-87
2022/06/12 04:21:45;;;;;;;9.15;6.40;;;;;;;12.18;89.27;99585.81;4098929;84;21076;-86
2022/06/12 04:27:52;;;;;;;10.65;6.67;;;;;;;12.33;89.43;99590.32;4137772;85;21617;-85
2022/06/12 04:34:13;;;;;;;10.20;5.90;;;;;;;12.45;89.62;99592.25;4139531;84;21364;-87
2022/06/12 04:40:20;;;;;;;8.03;6.17;;;;;;;12.61;89.62;99599.73;4129621;84;21149;-87
2022/06/12 04:46:23;;;;;;;10.20;5.35;;;;;;;12.78;89.87;99594.83;4129315;84;21040;-86
2022/06/12 04:52:27;;;;;;;7.70;5.17;;;;;;;12.95;90.00;99602.48;4137341;84;21083;-87
2022/06/12 04:58:28;;;;;;;8.10;5.25;;;;;;;13.09;89.90;99615.03;4134057;85;22110;-88
2022/06/12 05:04:31;;;;;;;9.78;5.62;;;;;;;13.27;89.98;99621.49;4140945;84;21067;-88
2022/06/12 05:10:32;;;;;;;8.78;6.15;;;;;;;13.45;90.01;99614.22;4133127;84;20999;-87
2022/06/12 05:16:42;;;;;;;10.40;6.17;;;;;;;13.65;90.08;99607.32;4138520;85;21878;-87
2022/06/12 05:22:43;;;;;;;19.27;9.70;;;;;;;13.89;90.03;99613.63;4154932;84;20995;-87
2022/06/12 05:28:47;;;;;;;20.00;10.28;;;;;;;14.15;90.04;99617.53;4143320;84;21558;-87
2022/06/12 05:34:48;;;;;;;21.82;9.55;;;;;;;14.47;90.06;99614.40;4151075;84;21051;-88
2022/06/12 05:40:50;;;;;;;13.75;7.12;;;;;;;14.78;89.86;99617.12;4136785;84;21067;-87
2022/06/12 05:46:51;;;;;;;10.23;6.60;;;;;;;15.07;89.44;99620.16;4137094;84;21567;-88
2022/06/12 05:52:52;;;;;;;15.75;7.45;;;;;;;15.34;89.21;99624.17;4140682;84;21126;-88
2022/06/12 05:58:55;;;;;;;12.82;6.90;;;;;;;15.55;88.95;99616.74;4141290;84;21032;-88
2022/06/12 06:04:57;;;;;;;13.48;6.70;;;;;;;15.78;88.89;99628.80;4143419;84;21686;-88
2022/06/12 06:10:58;;;;;;;10.48;6.53;;;;;;;15.98;88.69;99616.75;3989232;87;21069;-88
2022/06/12 06:17:00;;;;;;;8.13;5.78;;;;;;;16.17;88.35;99621.86;4148533;84;21032;-88
2022/06/12 06:23:01;;;;;;;13.05;6.33;;;;;;;16.41;88.21;99624.56;4129424;84;21082;-88
2022/06/12 06:29:04;;;;;;;13.85;6.03;;;;;;;16.70;87.98;99615.63;4139015;84;22315;-90
2022/06/12 06:35:07;;;;;;;10.90;5.58;;;;;;;17.03;87.88;99617.28;4132032;84;21594;-88
2022/06/12 06:41:09;;;;;;;9.65;5.70;;;;;;;17.35;87.13;99619.87;4137691;84;21087;-87
2022/06/12 06:47:10;;;;;;;12.43;6.20;;;;;;;17.66;86.43;99619.48;4136173;84;22029;-89
2022/06/12 06:53:12;;;;;;;9.85;4.72;;;;;;;18.05;85.86;99611.05;4128985;84;21071;-88
2022/06/12 06:59:14;;;;;;;7.25;4.22;;;;;;;18.64;85.41;99621.34;4139568;84;21027;-90
2022/06/12 07:05:16;;;;;;;8.68;4.33;;;;;;;19.31;84.54;99622.68;4138660;85;21098;-89
2022/06/12 07:11:18;;;;;;;6.75;2.90;;;;;;;20.23;83.98;99620.66;4131823;84;21069;-88
2022/06/12 07:17:19;;;;;;;6.12;3.55;;;;;;;21.10;82.64;99621.53;4141386;84;22021;-90
2022/06/12 07:23:23;;;;;;;5.87;3.47;;;;;;;21.77;81.57;99611.06;4129345;85;21064;-87
2022/06/12 07:29:25;;;;;;;8.43;3.12;;;;;;;22.31;79.51;99599.52;4141450;84;21313;-89
2022/06/12 07:35:27;;;;;;;6.37;2.72;;;;;;;22.74;78.15;99599.94;4140948;84;21036;-89
2022/06/12 07:41:28;;;;;;;8.38;2.98;;;;;;;23.11;76.60;99601.26;4126808;84;21015;-89
2022/06/12 07:47:30;;;;;;;3.55;2.30;;;;;;;23.48;75.80;99599.13;4133521;84;22075;-88
2022/06/12 07:53:32;;;;;;;3.35;1.60;;;;;;;23.72;73.88;99598.17;4130522;84;21100;-87
2022/06/12 07:59:33;;;;;;;2.33;1.82;;;;;;;23.79;71.72;99591.73;4099699;85;21130;-88
2022/06/12 08:05:35;;;;;;;4.17;2.00;;;;;;;23.86;70.40;99590.72;4108007;85;21117;-88
2022/06/12 08:11:40;;;;;;;4.20;2.20;;;;;;;23.80;64.88;99593.31;4082226;85;21943;-87
2022/06/12 08:17:42;;;;;;;3.20;2.37;;;;;;;23.42;63.02;99579.17;4102443;85;21115;-87
2022/06/12 08:23:49;;;;;;;2.42;1.90;;;;;;;23.17;62.02;99574.34;4102255;85;21095;-87
2022/06/12 08:29:50;;;;;;;1.70;1.40;;;;;;;23.43;61.08;99577.97;4105018;85;21055;-87
2022/06/12 08:35:53;;;;;;;3.60;1.80;;;;;;;23.56;60.75;99568.95;4101129;85;21062;-86
2022/06/12 08:42:24;;;;;;;2.10;1.70;;;;;;;23.85;61.71;99567.56;4099555;85;21142;-87
2022/06/12 08:48:46;;;;;;;4.12;1.70;;;;;;;23.92;60.77;99562.34;4101866;85;21078;-87
2022/06/12 08:55:12;;;;;;;4.87;1.98;;;;;;;23.77;60.17;99556.48;4115418;83;20981;-86
2022/06/12 09:01:13;;;;;;;3.72;1.90;;;;;;;23.93;59.56;99556.94;4172646;83;20984;-87
2022/06/12 09:07:23;;;;;;;3.50;1.62;;;;;;;24.03;58.92;99552.41;4174011;82;21509;-87
2022/06/12 09:13:33;;;;;;;6.20;2.02;;;;;;;24.12;58.25;99548.28;4138089;83;21037;-88
2022/06/12 09:20:05;;;;;;;4.20;1.72;;;;;;;24.20;56.92;99542.61;4166261;83;21722;-85
2022/06/12 09:26:21;;;;;;;3.55;2.12;;;;;;;24.11;54.58;99536.16;4173344;82;22090;-85
2022/06/12 09:32:42;;;;;;;2.70;2.20;;;;;;;23.90;51.75;99527.09;4165094;83;21114;-86
2022/06/12 09:38:49;;;;;;;3.15;1.67;;;;;;;24.05;51.45;99513.59;4169026;83;21052;-85
2022/06/12 09:44:55;;;;;;;4.08;1.70;;;;;;;24.22;53.29;99516.38;4173867;83;21056;-88
2022/06/12 09:51:38;;;;;;;3.55;1.95;;;;;;;23.96;54.64;99496.71;4174727;82;21055;-87
2022/06/12 09:58:08;;;;;;;3.30;1.72;;;;;;;23.96;54.64;99496.71;4149824;83;21062;-85
2022/06/12 10:04:33;;;;;;;3.25;1.60;;;;;;;24.64;53.21;99494.42;4150386;84;21015;-86
2022/06/12 10:10:45;;;;;;;2.65;1.65;;;;;;;25.00;53.73;99485.45;4118741;84;21139;-88
2022/06/12 10:17:00;;;;;;;4.25;2.10;;;;;;;25.77;53.19;99478.08;4131897;84;21032;-86
2022/06/12 10:23:02;;;;;;;3.30;1.85;;;;;;;26.37;52.63;99476.25;4132026;84;21079;-87
2022/06/12 10:29:14;;;;;;;2.62;1.82;;;;;;;25.89;51.71;99474.34;4144066;84;21037;-87
2022/06/12 10:35:23;;;;;;;4.22;2.20;;;;;;;25.43;52.21;99467.92;4131475;84;21906;-87
2022/06/12 10:41:29;;;;;;;3.80;2.00;;;;;;;25.29;52.05;99460.67;4096976;84;28892;-87
2022/06/12 10:47:44;;;;;;;2.25;1.60;;;;;;;25.73;47.20;99457.20;4138809;84;21627;-87
2022/06/12 10:53:45;;;;;;;3.50;1.80;;;;;;;25.90;48.99;99446.47;4148063;84;21074;-87
2022/06/12 11:00:10;;;;;;;2.12;1.52;;;;;;;26.06;46.51;99444.15;4137312;85;21523;-87
2022/06/12 11:06:53;;;;;;;2.05;1.10;;;;;;;26.27;48.33;99441.02;4145110;84;21169;-85
2022/06/12 11:13:29;;;;;;;2.58;1.32;;;;;;;26.83;47.86;99437.61;4127149;85;21004;-86
2022/06/12 11:19:55;;;;;;;1.47;1.00;;;;;;;27.23;47.17;99435.25;4127296;84;21559;-87
2022/06/12 11:26:25;;;;;;;1.98;1.07;;;;;;;28.05;45.83;99429.23;4143639;84;21000;-84
2022/06/12 11:32:49;;;;;;;1.70;1.00;;;;;;;28.69;45.72;99425.18;4116793;84;20988;-86
2022/06/12 11:39:08;;;;;;;6.42;1.57;;;;;;;28.86;43.80;99423.41;4138116;84;21105;-86
2022/06/12 11:45:20;;;;;;;3.72;1.25;;;;;;;28.58;42.96;99413.07;4131837;85;21491;-87
2022/06/12 11:51:45;;;;;;;1.52;0.90;;;;;;;29.48;43.46;99401.88;4137313;84;21067;-85
2022/06/12 11:58:26;;;;;;;2.33;1.00;;;;;;;28.60;42.59;99391.46;4132852;84;21673;-86
2022/06/12 12:04:51;;;;;;;2.10;0.90;;;;;;;27.96;43.07;99395.55;4041014;84;21706;-85
2022/06/12 12:11:10;;;;;;;2.25;1.20;;;;;;;28.14;42.37;99376.31;4129396;84;21040;-86
2022/06/12 12:17:17;;;;;;;1.70;1.02;;;;;;;27.74;42.25;99378.21;4136725;84;21615;-86
2022/06/12 12:23:24;;;;;;;3.12;1.00;;;;;;;27.11;42.90;99371.63;4128507;84;21116;-87
2022/06/12 12:29:30;;;;;;;1.95;0.93;;;;;;;27.05;41.96;99371.49;4135044;84;21080;-86
2022/06/12 12:41:56;;;;;;;3.60;1.37;;;;;;;27.13;41.91;99355.84;4130571;84;21053;-85
2022/06/12 12:48:12;;;;;;;2.35;1.30;;;;;;;27.14;42.43;99355.22;4134463;84;20996;-86
2022/06/12 12:54:20;;;;;;;3.50;1.40;;;;;;;27.06;42.13;99360.39;4136143;84;21055;-86
2022/06/12 13:00:28;;;;;;;3.75;1.30;;;;;;;26.63;42.23;99356.70;4139275;84;21019;-86
2022/06/12 13:07:09;;;;;;;1.82;1.10;;;;;;;26.06;40.89;99345.17;4131057;85;21059;-85
2022/06/12 13:13:38;;;;;;;2.90;1.30;;;;;;;25.84;41.49;99338.98;4134592;84;21025;-86
2022/06/12 13:19:51;;;;;;;1.92;1.05;;;;;;;25.75;42.21;99326.34;4133530;84;21060;-86
2022/06/12 13:25:54;;;;;;;2.55;1.12;;;;;;;25.83;41.27;99318.56;4139011;84;21036;-85
2022/06/12 13:32:05;;;;;;;2.98;1.10;;;;;;;25.78;42.45;99314.98;4130416;84;21048;-86
2022/06/12 13:38:07;;;;;;;6.12;1.20;;;;;;;25.78;42.29;99316.38;4129820;84;21144;-86
2022/06/12 13:44:31;;;;;;;1.60;1.12;;;;;;;25.65;40.93;99310.80;4126992;84;21056;-87
2022/06/12 13:50:38;;;;;;;2.30;1.17;;;;;;;25.67;41.75;99302.06;4130037;84;21075;-86
2022/06/12 13:56:56;;;;;;;4.30;1.07;;;;;;;25.78;41.77;99293.16;4130449;84;21542;-86
2022/06/12 14:02:58;;;;;;;1.57;0.93;;;;;;;25.87;42.30;99286.16;4142330;84;21043;-86
2022/06/12 14:09:07;;;;;;;2.05;1.00;;;;;;;25.99;41.86;99285.18;4123030;84;21151;-84
2022/06/12 14:15:31;;;;;;;2.47;1.30;;;;;;;26.17;41.75;99285.14;4130804;84;21080;-85
2022/06/12 14:21:39;;;;;;;1.60;1.00;;;;;;;26.29;41.78;99280.58;4130364;84;21099;-85
2022/06/12 14:27:41;;;;;;;2.72;1.17;;;;;;;26.28;41.68;99278.39;4137864;84;21974;-85
2022/06/12 14:34:05;;;;;;;1.40;0.90;;;;;;;26.05;41.67;99276.30;4133712;84;20997;-86
2022/06/12 14:40:36;;;;;;;2.47;1.20;;;;;;;25.87;42.11;99270.73;4052234;86;21053;-86
2022/06/12 14:46:37;;;;;;;2.77;1.10;;;;;;;25.96;41.95;99269.30;4001923;86;21097;-87
2022/06/12 14:52:39;;;;;;;3.02;1.02;;;;;;;26.07;41.86;99267.59;3999474;87;21413;-86
2022/06/12 14:58:41;;;;;;;2.75;1.10;;;;;;;26.18;42.09;99260.06;4009170;86;21113;-86
2022/06/12 15:04:42;;;;;;;2.05;1.25;;;;;;;26.29;42.50;99260.33;4010833;86;21603;-86
2022/06/12 15:10:44;;;;;;;3.95;1.10;;;;;;;26.47;42.19;99262.27;4010400;86;22207;-86
2022/06/12 15:16:45;;;;;;;2.40;1.27;;;;;;;26.33;41.94;99261.56;4004486;86;21560;-86
2022/06/12 15:22:47;;;;;;;1.30;0.95;;;;;;;26.09;42.20;99248.88;4013854;86;21127;-85
2022/06/12 15:35:18;;;;;;;2.60;0.93;;;;;;;25.50;43.50;99241.19;4008255;86;21068;-86
2022/06/12 15:41:23;;;;;;;2.05;1.00;;;;;;;25.33;43.71;99233.75;4012972;86;21116;-86
2022/06/12 15:47:24;;;;;;;1.30;1.20;;;;;;;25.34;44.44;99231.09;4005281;86;21715;-85
2022/06/12 15:53:26;;;;;;;2.33;1.20;;;;;;;25.21;44.74;99235.28;4003383;86;21036;-86
2022/06/12 15:59:37;;;;;;;3.58;1.67;;;;;;;24.94;45.40;99227.66;4053728;85;21110;-87
2022/06/12 16:05:38;;;;;;;1.55;1.32;;;;;;;24.63;46.18;99220.73;4093404;85;21001;-87
2022/06/12 16:11:42;;;;;;;2.42;1.42;;;;;;;24.42;46.62;99221.63;4175577;84;21039;-85
2022/06/12 16:17:44;;;;;;;2.22;1.60;;;;;;;24.26;47.13;99213.49;4176800;83;21075;-85
2022/06/12 16:23:46;;;;;;;1.72;1.32;;;;;;;24.26;47.09;99206.50;4164832;83;21023;-86
2022/06/12 16:29:47;;;;;;;2.92;1.22;;;;;;;24.31;47.71;99203.71;4172292;83;22024;-86
2022/06/12 16:35:49;;;;;;;1.37;1.20;;;;;;;24.26;48.89;99198.11;4168781;83;21025;-87
2022/06/12 16:41:53;;;;;;;1.15;0.93;;;;;;;24.14;49.66;99195.42;4174719;83;21057;-85
2022/06/12 16:47:55;;;;;;;3.02;1.40;;;;;;;24.01;49.83;99190.55;4170132;83;21041;-85
2022/06/12 16:53:57;;;;;;;1.95;1.35;;;;;;;23.89;50.55;99183.81;4181622;82;21419;-86
2022/06/12 16:59:59;;;;;;;2.53;1.33;;;;;;;23.67;51.65;99189.29;4064662;83;10000520;-86
2022/06/12 17:06:00;;;;;;;5.42;1.98;;;;;;;23.67;51.65;99189.29;4171085;83;22120;-86
2022/06/12 17:12:05;;;;;;;2.33;1.35;;;;;;;23.62;51.92;99189.27;4178197;83;20980;-85
2022/06/12 17:24:27;;;;;;;2.58;1.50;;;;;;;23.25;52.31;99174.93;4173656;83;21061;-86
2022/06/12 17:30:28;;;;;;;2.60;1.50;;;;;;;23.18;52.43;99180.13;4168734;83;21618;-86
2022/06/12 17:36:30;;;;;;;2.20;1.50;;;;;;;23.14;52.28;99179.49;4173157;83;21858;-86
2022/06/12 17:42:31;;;;;;;3.92;1.72;;;;;;;23.07;52.42;99178.95;4168008;83;21034;-85
2022/06/12 17:48:32;;;;;;;3.58;1.60;;;;;;;22.98;52.58;99174.70;4172480;83;22337;-86
2022/06/12 17:54:34;;;;;;;4.08;1.75;;;;;;;22.85;52.66;99171.17;4177666;83;21063;-84
2022/06/12 18:00:36;;;;;;;3.70;1.40;;;;;;;22.78;52.74;99177.80;4172018;84;21037;-86
2022/06/12 18:06:37;;;;;;;4.22;1.75;;;;;;;22.69;52.92;99184.68;4173678;83;21015;-85
2022/06/12 18:12:39;;;;;;;6.17;1.77;;;;;;;22.57;53.15;99172.16;4175616;83;21074;-85
2022/06/12 18:19:01;;;;;;;3.37;1.92;;;;;;;22.46;53.18;99170.32;4143865;83;21632;-86
2022/06/12 18:25:03;;;;;;;2.98;1.90;;;;;;;22.33;53.29;99174.53;4174236;83;21028;-85
2022/06/12 18:31:04;;;;;;;5.25;2.37;;;;;;;22.14;53.76;99173.41;4171041;83;21911;-85
2022/06/12 18:37:06;;;;;;;2.67;2.37;;;;;;;21.94;54.04;99172.23;4159827;83;21062;-85
2022/06/12 18:43:56;;;;;;;5.75;3.05;;;;;;;21.70;54.56;99182.93;4161146;84;21015;-86
2022/06/12 18:49:59;;;;;;;7.97;4.12;;;;;;;21.38;55.42;99187.27;4164220;83;21071;-86
2022/06/12 18:56:05;;;;;;;10.65;4.60;;;;;;;21.06;56.21;99187.42;4186527;84;21590;-85
2022/06/12 19:02:07;;;;;;;7.42;4.15;;;;;;;20.85;56.89;99188.56;4054496;83;10000452;-85
2022/06/12 19:08:11;;;;;;;6.12;3.92;;;;;;;20.53;57.67;99191.42;4167884;83;21001;-85
2022/06/12 19:14:17;;;;;;;9.20;4.50;;;;;;;20.30;58.37;99202.11;4190250;85;21011;-85
2022/06/12 19:20:23;;;;;;;4.97;4.17;;;;;;;20.08;59.03;99193.48;4183768;84;20996;-86
2022/06/12 19:26:26;;;;;;;10.25;4.40;;;;;;;19.83;59.77;99195.27;4164160;83;21080;-85
2022/06/12 19:32:29;;;;;;;6.55;3.55;;;;;;;19.58;60.52;99190.28;4171155;83;21528;-85
2022/06/12 19:38:38;;;;;;;8.55;4.70;;;;;;;19.39;61.53;99184.15;4105293;86;21594;-86
2022/06/12 19:44:43;;;;;;;8.70;4.17;;;;;;;19.11;62.09;99198.58;4189526;85;21056;-84
2022/06/12 19:50:44;;;;;;;6.92;4.42;;;;;;;18.84;63.04;99204.84;4192434;85;20952;-85
2022/06/12 19:56:47;;;;;;;8.43;4.47;;;;;;;18.62;63.88;99203.70;4129886;85;21057;-85
2022/06/12 20:02:49;;;;;;;10.38;4.72;;;;;;;18.56;64.35;99202.59;4141887;85;21004;-85
2022/06/12 20:08:51;;;;;;;5.67;4.15;;;;;;;18.48;64.86;99195.60;4137942;84;21582;-85
2022/06/12 20:14:52;;;;;;;4.92;3.65;;;;;;;18.23;65.57;99181.35;4125828;84;21029;-85
2022/06/12 20:21:02;;;;;;;6.90;4.20;;;;;;;17.98;66.50;99177.61;4135134;84;21048;-84
2022/06/12 20:27:06;;;;;;;9.33;4.40;;;;;;;17.74;67.24;99186.30;4126810;84;21103;-85
2022/06/12 20:39:54;;;;;;;7.55;5.58;;;;;;;17.52;69.43;99195.51;4114600;84;21358;-85
2022/06/12 20:45:56;;;;;;;8.13;5.20;;;;;;;17.45;69.38;99197.56;4127067;85;21005;-84
2022/06/12 20:51:57;;;;;;;8.98;4.33;;;;;;;17.21;69.98;99194.67;4128706;84;22037;-85
2022/06/12 20:58:04;;;;;;;7.12;5.40;;;;;;;17.00;70.69;99205.21;4052934;86;21093;-85
2022/06/12 21:04:08;;;;;;;14.23;6.67;;;;;;;16.84;71.10;99206.38;4136227;85;21085;-85
2022/06/12 21:10:11;;;;;;;10.25;7.28;;;;;;;16.72;71.59;99211.84;4130692;84;21069;-84
2022/06/12 21:16:16;;;;;;;12.55;7.92;;;;;;;16.57;72.06;99211.02;4135518;85;21071;-84
2022/06/12 21:22:24;;;;;;;9.30;7.12;;;;;;;16.43;72.69;99213.84;4124939;84;21088;-84
2022/06/12 21:28:29;;;;;;;9.75;5.95;;;;;;;16.30;73.00;99203.13;4139613;84;21060;-84
2022/06/12 21:34:33;;;;;;;10.38;6.67;;;;;;;16.17;73.46;99200.08;4128421;84;21075;-84
2022/06/12 21:40:35;;;;;;;9.45;6.28;;;;;;;15.97;73.81;99201.02;4134403;84;21040;-84
2022/06/12 21:46:36;;;;;;;10.95;7.45;;;;;;;15.92;74.84;99200.86;4151230;85;20996;-84
2022/06/12 21:59:13;;;;;;;16.35;10.85;;;;;;;15.77;75.63;99196.60;4133959;84;21059;-84
2022/06/12 22:05:16;;;;;;;15.10;11.28;;;;;;;15.59;75.83;99190.42;4125286;84;21051;-85
2022/06/12 22:11:19;;;;;;;15.72;9.90;;;;;;;15.46;76.27;99180.44;4125417;84;21060;-84
2022/06/12 22:17:22;;;;;;;17.55;12.03;;;;;;;15.41;76.93;99182.85;4130436;84;21069;-83
2022/06/12 22:23:23;;;;;;;16.00;10.38;;;;;;;15.26;77.07;99184.06;4123001;84;21067;-84
2022/06/12 22:29:25;;;;;;;13.85;9.20;;;;;;;15.11;77.45;99183.33;4131956;84;21029;-84
2022/06/12 22:35:26;;;;;;;15.65;10.70;;;;;;;15.01;78.06;99178.66;4092052;85;21040;-86
2022/06/12 22:41:28;;;;;;;12.50;8.68;;;;;;;14.88;78.42;99174.76;4124807;85;21056;-84
2022/06/12 22:47:35;;;;;;;14.75;8.35;;;;;;;14.83;79.03;99166.89;4141953;86;21606;-84
2022/06/12 22:53:37;;;;;;;13.80;9.67;;;;;;;14.75;79.53;99168.70;4122753;84;21056;-84
2022/06/12 22:59:42;;;;;;;17.25;10.23;;;;;;;14.71;80.27;99170.67;4125289;85;21041;-84
2022/06/12 23:05:44;;;;;;;17.05;8.83;;;;;;;14.88;80.77;99167.87;4134266;84;21044;-84
2022/06/12 23:11:45;;;;;;;17.55;10.30;;;;;;;14.91;81.06;99162.17;4135855;84;21027;-84
2022/06/12 23:17:53;;;;;;;13.68;9.33;;;;;;;14.76;80.71;99156.49;4140155;84;21670;-84
2022/06/12 23:23:56;;;;;;;31.23;19.42;;;;;;;14.58;81.26;99152.40;4127672;84;21370;-84
2022/06/12 23:29:57;;;;;;;30.80;22.48;;;;;;;14.47;81.83;99142.61;4133575;84;22232;-85
2022/06/12 23:35:59;;;;;;;30.12;19.62;;;;;;;14.37;81.80;99138.69;4110309;84;21032;-84
2022/06/12 23:49:09;;;;;;;27.22;17.65;;;;;;;14.15;82.83;99134.36;4146962;85;21029;-84
2022/06/12 23:55:13;;;;;;;22.15;14.58;;;;;;;14.09;82.97;99130.44;4131439;84;21057;-84
